sensor_id;sensor_type;location;lat;lon;timestamp;P1;durP1;ratioP1;P2;durP2;ratioP2
27365;SDS011;14837;57.148;-2.144;2023-07-16T00:00:42;4.95;;;1.48;;
27365;SDS011;14837;57.148;-2.144;2023-07-16T00:03:08;4.60;;;1.70;;
27365;SDS011;14837;57.148;-2.144;2023-07-16T00:05:36;2.90;;;1.35;;
27365;SDS011;14837;57.148;-2.144;2023-07-16T00:08:03;5.22;;;1.58;;
27365;SDS011;14837;57.148;-2.144;2023-07-16T00:10:29;2.15;;;1.27;;
27365;SDS011;14837;57.148;-2.144;2023-07-16T00:12:56;3.05;;;1.20;;
27365;SDS011;14837;57.148;-2.144;2023-07-16T00:15:22;2.63;;;1.10;;
27365;SDS011;14837;57.148;-2.144;2023-07-16T00:17:49;2.22;;;1.52;;
27365;SDS011;14837;57.148;-2.144;2023-07-16T00:20:16;2.50;;;1.30;;
27365;SDS011;14837;57.148;-2.144;2023-07-16T00:22:42;3.80;;;1.63;;
27365;SDS011;14837;57.148;-2.144;2023-07-16T00:25:09;2.08;;;1.10;;
27365;SDS011;14837;57.148;-2.144;2023-07-16T00:27:35;4.15;;;1.50;;
27365;SDS011;14837;57.148;-2.144;2023-07-16T00:30:02;2.35;;;1.33;;
27365;SDS011;14837;57.148;-2.144;2023-07-16T00:32:29;2.20;;;1.35;;
27365;SDS011;14837;57.148;-2.144;2023-07-16T00:34:56;5.25;;;1.80;;
27365;SDS011;14837;57.148;-2.144;2023-07-16T00:37:22;2.83;;;1.73;;
27365;SDS011;14837;57.148;-2.144;2023-07-16T00:39:49;2.85;;;1.25;;
27365;SDS011;14837;57.148;-2.144;2023-07-16T00:42:16;2.88;;;1.20;;
27365;SDS011;14837;57.148;-2.144;2023-07-16T00:44:42;3.30;;;1.63;;
27365;SDS011;14837;57.148;-2.144;2023-07-16T00:47:09;3.30;;;1.60;;
27365;SDS011;14837;57.148;-2.144;2023-07-16T00:49:36;4.07;;;1.58;;
27365;SDS011;14837;57.148;-2.144;2023-07-16T00:52:03;3.28;;;1.73;;
27365;SDS011;14837;57.148;-2.144;2023-07-16T00:54:30;3.63;;;1.05;;
27365;SDS011;14837;57.148;-2.144;2023-07-16T00:56:57;1.58;;;1.25;;
27365;SDS011;14837;57.148;-2.144;2023-07-16T00:59:24;3.50;;;1.65;;
27365;SDS011;14837;57.148;-2.144;2023-07-16T01:01:51;2.22;;;1.45;;
27365;SDS011;14837;57.148;-2.144;2023-07-16T01:04:17;1.92;;;0.98;;
27365;SDS011;14837;57.148;-2.144;2023-07-16T01:06:45;2.97;;;1.00;;
27365;SDS011;14837;57.148;-2.144;2023-07-16T01:11:39;3.20;;;1.23;;
27365;SDS011;14837;57.148;-2.144;2023-07-16T01:14:06;1.70;;;0.90;;
27365;SDS011;14837;57.148;-2.144;2023-07-16T01:16:34;2.25;;;1.17;;
27365;SDS011;14837;57.148;-2.144;2023-07-16T01:19:01;1.48;;;1.08;;
27365;SDS011;14837;57.148;-2.144;2023-07-16T01:21:38;2.42;;;1.20;;
27365;SDS011;14837;57.148;-2.144;2023-07-16T01:26:48;2.95;;;1.10;;
27365;SDS011;14837;57.148;-2.144;2023-07-16T01:31:45;3.65;;;1.45;;
27365;SDS011;14837;57.148;-2.144;2023-07-16T01:34:12;1.40;;;0.90;;
27365;SDS011;14837;57.148;-2.144;2023-07-16T01:36:40;1.77;;;0.93;;
27365;SDS011;14837;57.148;-2.144;2023-07-16T01:39:07;2.70;;;0.93;;
27365;SDS011;14837;57.148;-2.144;2023-07-16T01:41:33;2.50;;;1.30;;
27365;SDS011;14837;57.148;-2.144;2023-07-16T01:44:00;1.15;;;0.77;;
27365;SDS011;14837;57.148;-2.144;2023-07-16T01:46:27;1.60;;;0.90;;
27365;SDS011;14837;57.148;-2.144;2023-07-16T01:48:53;3.50;;;1.70;;
27365;SDS011;14837;57.148;-2.144;2023-07-16T01:51:20;2.33;;;1.30;;
27365;SDS011;14837;57.148;-2.144;2023-07-16T01:53:46;2.70;;;1.05;;
27365;SDS011;14837;57.148;-2.144;2023-07-16T01:56:13;1.35;;;1.10;;
27365;SDS011;14837;57.148;-2.144;2023-07-16T01:58:40;1.63;;;0.90;;
27365;SDS011;14837;57.148;-2.144;2023-07-16T02:01:06;2.53;;;1.30;;
27365;SDS011;14837;57.148;-2.144;2023-07-16T02:03:33;1.98;;;1.30;;
27365;SDS011;14837;57.148;-2.144;2023-07-16T02:06:00;1.55;;;1.20;;
27365;SDS011;14837;57.148;-2.144;2023-07-16T02:08:26;2.13;;;1.02;;
27365;SDS011;14837;57.148;-2.144;2023-07-16T02:10:53;1.88;;;0.90;;
27365;SDS011;14837;57.148;-2.144;2023-07-16T02:13:19;1.85;;;1.05;;
27365;SDS011;14837;57.148;-2.144;2023-07-16T02:15:46;2.20;;;1.00;;
27365;SDS011;14837;57.148;-2.144;2023-07-16T02:18:12;1.02;;;0.93;;
27365;SDS011;14837;57.148;-2.144;2023-07-16T02:20:39;2.05;;;0.90;;
27365;SDS011;14837;57.148;-2.144;2023-07-16T02:23:06;1.42;;;0.93;;
27365;SDS011;14837;57.148;-2.144;2023-07-16T02:25:33;1.52;;;0.70;;
27365;SDS011;14837;57.148;-2.144;2023-07-16T02:27:59;2.42;;;1.00;;
27365;SDS011;14837;57.148;-2.144;2023-07-16T02:30:26;2.65;;;1.52;;
27365;SDS011;14837;57.148;-2.144;2023-07-16T02:32:53;1.52;;;0.90;;
27365;SDS011;14837;57.148;-2.144;2023-07-16T02:35:19;3.22;;;1.00;;
27365;SDS011;14837;57.148;-2.144;2023-07-16T02:37:46;1.10;;;0.90;;
27365;SDS011;14837;57.148;-2.144;2023-07-16T02:40:12;1.38;;;1.08;;
27365;SDS011;14837;57.148;-2.144;2023-07-16T02:42:39;1.55;;;1.05;;
27365;SDS011;14837;57.148;-2.144;2023-07-16T02:45:06;2.28;;;1.00;;
27365;SDS011;14837;57.148;-2.144;2023-07-16T02:47:33;3.28;;;0.95;;
27365;SDS011;14837;57.148;-2.144;2023-07-16T02:49:59;1.13;;;0.80;;
27365;SDS011;14837;57.148;-2.144;2023-07-16T02:52:26;1.17;;;0.88;;
27365;SDS011;14837;57.148;-2.144;2023-07-16T02:54:52;2.42;;;1.02;;
27365;SDS011;14837;57.148;-2.144;2023-07-16T02:57:20;0.95;;;0.68;;
27365;SDS011;14837;57.148;-2.144;2023-07-16T02:59:47;1.48;;;0.77;;
27365;SDS011;14837;57.148;-2.144;2023-07-16T03:02:14;0.95;;;0.57;;
27365;SDS011;14837;57.148;-2.144;2023-07-16T03:04:40;1.35;;;0.75;;
27365;SDS011;14837;57.148;-2.144;2023-07-16T03:07:08;1.02;;;0.70;;
27365;SDS011;14837;57.148;-2.144;2023-07-16T03:09:34;1.38;;;0.60;;
27365;SDS011;14837;57.148;-2.144;2023-07-16T03:12:01;2.50;;;0.90;;
27365;SDS011;14837;57.148;-2.144;2023-07-16T03:14:27;1.27;;;0.50;;
27365;SDS011;14837;57.148;-2.144;2023-07-16T03:16:54;0.90;;;0.50;;
27365;SDS011;14837;57.148;-2.144;2023-07-16T03:19:21;1.88;;;0.70;;
27365;SDS011;14837;57.148;-2.144;2023-07-16T03:21:47;2.15;;;0.80;;
27365;SDS011;14837;57.148;-2.144;2023-07-16T03:24:16;0.98;;;0.85;;
27365;SDS011;14837;57.148;-2.144;2023-07-16T03:26:42;1.05;;;0.80;;
27365;SDS011;14837;57.148;-2.144;2023-07-16T03:29:09;1.13;;;0.70;;
27365;SDS011;14837;57.148;-2.144;2023-07-16T03:31:36;1.00;;;0.60;;
27365;SDS011;14837;57.148;-2.144;2023-07-16T03:34:02;2.15;;;0.60;;
27365;SDS011;14837;57.148;-2.144;2023-07-16T03:36:29;0.80;;;0.60;;
27365;SDS011;14837;57.148;-2.144;2023-07-16T03:38:55;2.03;;;0.80;;
27365;SDS011;14837;57.148;-2.144;2023-07-16T03:41:22;2.42;;;0.88;;
27365;SDS011;14837;57.148;-2.144;2023-07-16T03:43:48;1.48;;;0.60;;
27365;SDS011;14837;57.148;-2.144;2023-07-16T03:46:15;0.80;;;0.50;;
27365;SDS011;14837;57.148;-2.144;2023-07-16T03:48:42;0.85;;;0.60;;
27365;SDS011;14837;57.148;-2.144;2023-07-16T03:51:09;1.80;;;0.80;;
27365;SDS011;14837;57.148;-2.144;2023-07-16T03:53:35;0.77;;;0.60;;
27365;SDS011;14837;57.148;-2.144;2023-07-16T03:56:02;0.70;;;0.60;;
27365;SDS011;14837;57.148;-2.144;2023-07-16T03:58:28;0.88;;;0.70;;
27365;SDS011;14837;57.148;-2.144;2023-07-16T04:00:55;1.75;;;0.50;;
27365;SDS011;14837;57.148;-2.144;2023-07-16T04:03:22;1.13;;;0.70;;
27365;SDS011;14837;57.148;-2.144;2023-07-16T04:05:48;0.80;;;0.70;;
27365;SDS011;14837;57.148;-2.144;2023-07-16T04:08:15;1.00;;;0.55;;
27365;SDS011;14837;57.148;-2.144;2023-07-16T04:10:42;1.30;;;0.68;;
27365;SDS011;14837;57.148;-2.144;2023-07-16T04:13:08;0.95;;;0.60;;
27365;SDS011;14837;57.148;-2.144;2023-07-16T04:15:35;0.60;;;0.50;;
27365;SDS011;14837;57.148;-2.144;2023-07-16T04:18:02;0.98;;;0.68;;
27365;SDS011;14837;57.148;-2.144;2023-07-16T04:20:30;4.72;;;0.80;;
27365;SDS011;14837;57.148;-2.144;2023-07-16T04:22:57;1.25;;;0.63;;
27365;SDS011;14837;57.148;-2.144;2023-07-16T04:25:23;1.20;;;0.63;;
27365;SDS011;14837;57.148;-2.144;2023-07-16T04:27:50;0.70;;;0.50;;
27365;SDS011;14837;57.148;-2.144;2023-07-16T04:30:17;0.80;;;0.60;;
27365;SDS011;14837;57.148;-2.144;2023-07-16T04:32:44;0.93;;;0.57;;
27365;SDS011;14837;57.148;-2.144;2023-07-16T04:35:10;2.08;;;0.60;;
27365;SDS011;14837;57.148;-2.144;2023-07-16T04:37:37;0.90;;;0.63;;
27365;SDS011;14837;57.148;-2.144;2023-07-16T04:40:03;1.08;;;0.65;;
27365;SDS011;14837;57.148;-2.144;2023-07-16T04:42:30;1.65;;;0.52;;
27365;SDS011;14837;57.148;-2.144;2023-07-16T04:44:57;0.77;;;0.50;;
27365;SDS011;14837;57.148;-2.144;2023-07-16T04:47:23;0.45;;;0.38;;
27365;SDS011;14837;57.148;-2.144;2023-07-16T04:49:50;0.50;;;0.43;;
27365;SDS011;14837;57.148;-2.144;2023-07-16T04:52:16;0.50;;;0.50;;
27365;SDS011;14837;57.148;-2.144;2023-07-16T04:54:43;0.95;;;0.63;;
27365;SDS011;14837;57.148;-2.144;2023-07-16T04:57:09;1.73;;;0.43;;
27365;SDS011;14837;57.148;-2.144;2023-07-16T04:59:36;0.38;;;0.38;;
27365;SDS011;14837;57.148;-2.144;2023-07-16T05:02:04;0.77;;;0.60;;
27365;SDS011;14837;57.148;-2.144;2023-07-16T05:04:31;1.08;;;0.43;;
27365;SDS011;14837;57.148;-2.144;2023-07-16T05:06:58;1.35;;;0.57;;
27365;SDS011;14837;57.148;-2.144;2023-07-16T05:09:24;1.45;;;0.50;;
27365;SDS011;14837;57.148;-2.144;2023-07-16T05:11:51;0.68;;;0.60;;
27365;SDS011;14837;57.148;-2.144;2023-07-16T05:14:17;0.70;;;0.60;;
27365;SDS011;14837;57.148;-2.144;2023-07-16T05:16:44;0.35;;;0.35;;
27365;SDS011;14837;57.148;-2.144;2023-07-16T05:19:10;0.50;;;0.47;;
27365;SDS011;14837;57.148;-2.144;2023-07-16T05:21:37;0.40;;;0.40;;
27365;SDS011;14837;57.148;-2.144;2023-07-16T05:24:04;1.25;;;0.40;;
27365;SDS011;14837;57.148;-2.144;2023-07-16T05:26:30;0.60;;;0.50;;
27365;SDS011;14837;57.148;-2.144;2023-07-16T05:28:57;0.38;;;0.38;;
27365;SDS011;14837;57.148;-2.144;2023-07-16T05:31:24;0.57;;;0.40;;
27365;SDS011;14837;57.148;-2.144;2023-07-16T05:33:50;0.70;;;0.50;;
27365;SDS011;14837;57.148;-2.144;2023-07-16T05:36:17;0.60;;;0.47;;
27365;SDS011;14837;57.148;-2.144;2023-07-16T05:38:44;0.22;;;0.22;;
27365;SDS011;14837;57.148;-2.144;2023-07-16T05:41:10;0.30;;;0.30;;
27365;SDS011;14837;57.148;-2.144;2023-07-16T05:43:37;0.85;;;0.50;;
27365;SDS011;14837;57.148;-2.144;2023-07-16T05:46:03;0.50;;;0.35;;
27365;SDS011;14837;57.148;-2.144;2023-07-16T05:48:31;1.25;;;0.60;;
27365;SDS011;14837;57.148;-2.144;2023-07-16T05:50:58;0.73;;;0.55;;
27365;SDS011;14837;57.148;-2.144;2023-07-16T05:53:25;0.50;;;0.50;;
27365;SDS011;14837;57.148;-2.144;2023-07-16T05:55:51;0.50;;;0.40;;
27365;SDS011;14837;57.148;-2.144;2023-07-16T05:58:18;1.73;;;0.43;;
27365;SDS011;14837;57.148;-2.144;2023-07-16T06:00:45;1.08;;;0.40;;
27365;SDS011;14837;57.148;-2.144;2023-07-16T06:03:11;0.40;;;0.38;;
27365;SDS011;14837;57.148;-2.144;2023-07-16T06:05:38;0.20;;;0.20;;
27365;SDS011;14837;57.148;-2.144;2023-07-16T06:08:04;0.60;;;0.40;;
27365;SDS011;14837;57.148;-2.144;2023-07-16T06:10:33;0.73;;;0.30;;
27365;SDS011;14837;57.148;-2.144;2023-07-16T06:12:59;0.73;;;0.40;;
27365;SDS011;14837;57.148;-2.144;2023-07-16T06:15:26;1.38;;;0.50;;
27365;SDS011;14837;57.148;-2.144;2023-07-16T06:17:52;0.30;;;0.30;;
27365;SDS011;14837;57.148;-2.144;2023-07-16T06:20:19;0.40;;;0.30;;
27365;SDS011;14837;57.148;-2.144;2023-07-16T06:22:45;0.73;;;0.40;;
27365;SDS011;14837;57.148;-2.144;2023-07-16T06:25:12;0.73;;;0.40;;
27365;SDS011;14837;57.148;-2.144;2023-07-16T06:27:39;0.50;;;0.38;;
27365;SDS011;14837;57.148;-2.144;2023-07-16T06:30:06;1.05;;;0.40;;
27365;SDS011;14837;57.148;-2.144;2023-07-16T06:32:32;0.88;;;0.47;;
27365;SDS011;14837;57.148;-2.144;2023-07-16T06:34:59;0.82;;;0.57;;
27365;SDS011;14837;57.148;-2.144;2023-07-16T06:37:26;0.47;;;0.40;;
27365;SDS011;14837;57.148;-2.144;2023-07-16T06:39:52;0.60;;;0.40;;
27365;SDS011;14837;57.148;-2.144;2023-07-16T06:42:19;1.63;;;0.57;;
27365;SDS011;14837;57.148;-2.144;2023-07-16T06:44:46;0.90;;;0.50;;
27365;SDS011;14837;57.148;-2.144;2023-07-16T06:47:12;0.95;;;0.43;;
27365;SDS011;14837;57.148;-2.144;2023-07-16T06:49:39;0.75;;;0.45;;
27365;SDS011;14837;57.148;-2.144;2023-07-16T06:52:06;0.77;;;0.50;;
27365;SDS011;14837;57.148;-2.144;2023-07-16T06:54:32;1.00;;;0.43;;
27365;SDS011;14837;57.148;-2.144;2023-07-16T06:56:59;0.75;;;0.40;;
27365;SDS011;14837;57.148;-2.144;2023-07-16T06:59:25;0.60;;;0.60;;
27365;SDS011;14837;57.148;-2.144;2023-07-16T07:01:52;0.60;;;0.32;;
27365;SDS011;14837;57.148;-2.144;2023-07-16T07:04:18;0.52;;;0.40;;
27365;SDS011;14837;57.148;-2.144;2023-07-16T07:06:45;0.45;;;0.30;;
27365;SDS011;14837;57.148;-2.144;2023-07-16T07:09:11;0.43;;;0.20;;
27365;SDS011;14837;57.148;-2.144;2023-07-16T07:11:40;0.30;;;0.30;;
27365;SDS011;14837;57.148;-2.144;2023-07-16T07:14:06;0.43;;;0.40;;
27365;SDS011;14837;57.148;-2.144;2023-07-16T07:16:36;0.28;;;0.28;;
27365;SDS011;14837;57.148;-2.144;2023-07-16T07:19:03;0.55;;;0.25;;
27365;SDS011;14837;57.148;-2.144;2023-07-16T07:21:30;0.30;;;0.28;;
27365;SDS011;14837;57.148;-2.144;2023-07-16T07:23:56;0.30;;;0.30;;
27365;SDS011;14837;57.148;-2.144;2023-07-16T07:26:23;0.57;;;0.40;;
27365;SDS011;14837;57.148;-2.144;2023-07-16T07:28:49;0.50;;;0.35;;
27365;SDS011;14837;57.148;-2.144;2023-07-16T07:31:16;0.20;;;0.20;;
27365;SDS011;14837;57.148;-2.144;2023-07-16T07:33:42;0.57;;;0.30;;
27365;SDS011;14837;57.148;-2.144;2023-07-16T07:36:09;0.88;;;0.40;;
27365;SDS011;14837;57.148;-2.144;2023-07-16T07:38:35;1.85;;;0.40;;
27365;SDS011;14837;57.148;-2.144;2023-07-16T07:41:06;0.85;;;0.40;;
27365;SDS011;14837;57.148;-2.144;2023-07-16T07:43:33;0.60;;;0.20;;
27365;SDS011;14837;57.148;-2.144;2023-07-16T07:45:59;0.70;;;0.35;;
27365;SDS011;14837;57.148;-2.144;2023-07-16T07:48:26;0.60;;;0.20;;
27365;SDS011;14837;57.148;-2.144;2023-07-16T07:50:52;0.60;;;0.32;;
27365;SDS011;14837;57.148;-2.144;2023-07-16T07:53:19;0.32;;;0.13;;
27365;SDS011;14837;57.148;-2.144;2023-07-16T07:55:45;1.00;;;0.28;;
27365;SDS011;14837;57.148;-2.144;2023-07-16T07:58:12;0.30;;;0.30;;
27365;SDS011;14837;57.148;-2.144;2023-07-16T08:00:38;0.30;;;0.30;;
27365;SDS011;14837;57.148;-2.144;2023-07-16T08:03:05;1.05;;;0.50;;
27365;SDS011;14837;57.148;-2.144;2023-07-16T08:05:32;1.42;;;0.25;;
27365;SDS011;14837;57.148;-2.144;2023-07-16T08:08:00;1.95;;;0.38;;
27365;SDS011;14837;57.148;-2.144;2023-07-16T08:10:26;0.15;;;0.15;;
27365;SDS011;14837;57.148;-2.144;2023-07-16T08:12:53;1.00;;;0.30;;
27365;SDS011;14837;57.148;-2.144;2023-07-16T08:15:19;0.20;;;0.20;;
27365;SDS011;14837;57.148;-2.144;2023-07-16T08:17:46;1.55;;;0.43;;
27365;SDS011;14837;57.148;-2.144;2023-07-16T08:20:14;0.32;;;0.30;;
27365;SDS011;14837;57.148;-2.144;2023-07-16T08:22:41;0.20;;;0.20;;
27365;SDS011;14837;57.148;-2.144;2023-07-16T08:25:07;0.30;;;0.30;;
27365;SDS011;14837;57.148;-2.144;2023-07-16T08:27:34;0.85;;;0.30;;
27365;SDS011;14837;57.148;-2.144;2023-07-16T08:30:01;0.30;;;0.30;;
27365;SDS011;14837;57.148;-2.144;2023-07-16T08:32:27;0.52;;;0.22;;
27365;SDS011;14837;57.148;-2.144;2023-07-16T08:34:54;0.68;;;0.28;;
27365;SDS011;14837;57.148;-2.144;2023-07-16T08:37:20;0.68;;;0.30;;
27365;SDS011;14837;57.148;-2.144;2023-07-16T08:39:50;0.32;;;0.30;;
27365;SDS011;14837;57.148;-2.144;2023-07-16T08:42:17;0.43;;;0.30;;
27365;SDS011;14837;57.148;-2.144;2023-07-16T08:44:44;0.38;;;0.20;;
27365;SDS011;14837;57.148;-2.144;2023-07-16T08:47:10;0.38;;;0.38;;
27365;SDS011;14837;57.148;-2.144;2023-07-16T08:49:37;0.47;;;0.30;;
27365;SDS011;14837;57.148;-2.144;2023-07-16T08:52:04;0.25;;;0.20;;
27365;SDS011;14837;57.148;-2.144;2023-07-16T08:54:31;0.35;;;0.20;;
27365;SDS011;14837;57.148;-2.144;2023-07-16T08:56:57;0.20;;;0.20;;
27365;SDS011;14837;57.148;-2.144;2023-07-16T08:59:26;0.50;;;0.20;;
27365;SDS011;14837;57.148;-2.144;2023-07-16T09:01:53;0.65;;;0.30;;
27365;SDS011;14837;57.148;-2.144;2023-07-16T09:04:19;0.45;;;0.22;;
27365;SDS011;14837;57.148;-2.144;2023-07-16T09:06:46;0.10;;;0.10;;
27365;SDS011;14837;57.148;-2.144;2023-07-16T09:09:19;0.65;;;0.40;;
27365;SDS011;14837;57.148;-2.144;2023-07-16T09:11:46;1.08;;;0.20;;
27365;SDS011;14837;57.148;-2.144;2023-07-16T09:14:19;1.38;;;0.40;;
27365;SDS011;14837;57.148;-2.144;2023-07-16T09:16:49;0.75;;;0.30;;
27365;SDS011;14837;57.148;-2.144;2023-07-16T09:19:16;0.40;;;0.30;;
27365;SDS011;14837;57.148;-2.144;2023-07-16T09:21:48;0.40;;;0.30;;
27365;SDS011;14837;57.148;-2.144;2023-07-16T09:24:14;0.45;;;0.30;;
27365;SDS011;14837;57.148;-2.144;2023-07-16T09:26:48;0.10;;;0.10;;
27365;SDS011;14837;57.148;-2.144;2023-07-16T09:29:16;0.40;;;0.40;;
27365;SDS011;14837;57.148;-2.144;2023-07-16T09:32:01;0.47;;;0.20;;
27365;SDS011;14837;57.148;-2.144;2023-07-16T09:34:31;0.70;;;0.30;;
27365;SDS011;14837;57.148;-2.144;2023-07-16T09:36:58;0.30;;;0.25;;
27365;SDS011;14837;57.148;-2.144;2023-07-16T09:39:25;0.28;;;0.28;;
27365;SDS011;14837;57.148;-2.144;2023-07-16T09:41:52;0.50;;;0.30;;
27365;SDS011;14837;57.148;-2.144;2023-07-16T09:44:19;0.30;;;0.30;;
27365;SDS011;14837;57.148;-2.144;2023-07-16T09:46:46;0.20;;;0.20;;
27365;SDS011;14837;57.148;-2.144;2023-07-16T09:49:14;0.30;;;0.30;;
27365;SDS011;14837;57.148;-2.144;2023-07-16T09:51:40;0.50;;;0.30;;
27365;SDS011;14837;57.148;-2.144;2023-07-16T09:54:08;0.00;;;0.00;;
27365;SDS011;14837;57.148;-2.144;2023-07-16T09:56:36;0.60;;;0.20;;
27365;SDS011;14837;57.148;-2.144;2023-07-16T09:59:05;1.35;;;0.35;;
27365;SDS011;14837;57.148;-2.144;2023-07-16T10:01:36;0.30;;;0.20;;
27365;SDS011;14837;57.148;-2.144;2023-07-16T10:04:12;0.25;;;0.20;;
27365;SDS011;14837;57.148;-2.144;2023-07-16T10:06:58;0.60;;;0.20;;
27365;SDS011;14837;57.148;-2.144;2023-07-16T10:09:34;0.45;;;0.30;;
27365;SDS011;14837;57.148;-2.144;2023-07-16T10:17:13;0.25;;;0.20;;
27365;SDS011;14837;57.148;-2.144;2023-07-16T10:19:59;0.50;;;0.32;;
27365;SDS011;14837;57.148;-2.144;2023-07-16T10:24:59;0.35;;;0.22;;
27365;SDS011;14837;57.148;-2.144;2023-07-16T10:27:27;0.35;;;0.28;;
27365;SDS011;14837;57.148;-2.144;2023-07-16T10:29:54;0.40;;;0.28;;
27365;SDS011;14837;57.148;-2.144;2023-07-16T10:32:21;0.45;;;0.20;;
27365;SDS011;14837;57.148;-2.144;2023-07-16T10:34:48;0.20;;;0.10;;
27365;SDS011;14837;57.148;-2.144;2023-07-16T10:37:14;0.20;;;0.20;;
27365;SDS011;14837;57.148;-2.144;2023-07-16T10:39:50;0.85;;;0.30;;
27365;SDS011;14837;57.148;-2.144;2023-07-16T10:42:19;0.15;;;0.13;;
27365;SDS011;14837;57.148;-2.144;2023-07-16T10:44:48;0.10;;;0.10;;
27365;SDS011;14837;57.148;-2.144;2023-07-16T10:47:33;0.28;;;0.17;;
27365;SDS011;14837;57.148;-2.144;2023-07-16T10:50:02;0.20;;;0.10;;
27365;SDS011;14837;57.148;-2.144;2023-07-16T10:52:29;0.17;;;0.17;;
27365;SDS011;14837;57.148;-2.144;2023-07-16T10:54:55;0.10;;;0.00;;
27365;SDS011;14837;57.148;-2.144;2023-07-16T10:57:24;0.32;;;0.10;;
27365;SDS011;14837;57.148;-2.144;2023-07-16T10:59:52;0.50;;;0.10;;
27365;SDS011;14837;57.148;-2.144;2023-07-16T11:02:18;1.55;;;0.22;;
27365;SDS011;14837;57.148;-2.144;2023-07-16T11:04:47;2.00;;;0.90;;
27365;SDS011;14837;57.148;-2.144;2023-07-16T11:07:14;1.80;;;0.30;;
27365;SDS011;14837;57.148;-2.144;2023-07-16T11:09:48;0.50;;;0.20;;
27365;SDS011;14837;57.148;-2.144;2023-07-16T11:12:16;0.40;;;0.22;;
27365;SDS011;14837;57.148;-2.144;2023-07-16T11:14:43;0.68;;;0.55;;
27365;SDS011;14837;57.148;-2.144;2023-07-16T11:17:11;0.25;;;0.17;;
27365;SDS011;14837;57.148;-2.144;2023-07-16T11:19:37;0.35;;;0.20;;
27365;SDS011;14837;57.148;-2.144;2023-07-16T11:22:04;0.55;;;0.20;;
27365;SDS011;14837;57.148;-2.144;2023-07-16T11:24:38;0.25;;;0.20;;
27365;SDS011;14837;57.148;-2.144;2023-07-16T11:27:05;0.30;;;0.30;;
27365;SDS011;14837;57.148;-2.144;2023-07-16T11:29:35;0.40;;;0.32;;
27365;SDS011;14837;57.148;-2.144;2023-07-16T11:32:02;0.20;;;0.13;;
27365;SDS011;14837;57.148;-2.144;2023-07-16T11:34:30;0.40;;;0.20;;
27365;SDS011;14837;57.148;-2.144;2023-07-16T11:37:06;0.28;;;0.28;;
27365;SDS011;14837;57.148;-2.144;2023-07-16T11:39:33;0.30;;;0.20;;
27365;SDS011;14837;57.148;-2.144;2023-07-16T11:41:59;0.50;;;0.20;;
27365;SDS011;14837;57.148;-2.144;2023-07-16T11:44:36;0.55;;;0.30;;
27365;SDS011;14837;57.148;-2.144;2023-07-16T11:47:03;0.20;;;0.17;;
27365;SDS011;14837;57.148;-2.144;2023-07-16T11:49:30;0.10;;;0.10;;
27365;SDS011;14837;57.148;-2.144;2023-07-16T11:51:57;0.20;;;0.10;;
27365;SDS011;14837;57.148;-2.144;2023-07-16T11:54:24;0.17;;;0.17;;
27365;SDS011;14837;57.148;-2.144;2023-07-16T11:56:51;0.52;;;0.30;;
27365;SDS011;14837;57.148;-2.144;2023-07-16T11:59:18;0.47;;;0.10;;
27365;SDS011;14837;57.148;-2.144;2023-07-16T12:01:48;0.30;;;0.20;;
27365;SDS011;14837;57.148;-2.144;2023-07-16T12:04:16;0.10;;;0.10;;
27365;SDS011;14837;57.148;-2.144;2023-07-16T12:06:43;0.45;;;0.30;;
27365;SDS011;14837;57.148;-2.144;2023-07-16T12:09:10;0.70;;;0.50;;
27365;SDS011;14837;57.148;-2.144;2023-07-16T12:11:36;0.82;;;0.43;;
27365;SDS011;14837;57.148;-2.144;2023-07-16T12:14:05;0.93;;;0.30;;
27365;SDS011;14837;57.148;-2.144;2023-07-16T12:16:31;0.68;;;0.20;;
27365;SDS011;14837;57.148;-2.144;2023-07-16T12:19:01;0.80;;;0.30;;
27365;SDS011;14837;57.148;-2.144;2023-07-16T12:21:28;0.45;;;0.20;;
27365;SDS011;14837;57.148;-2.144;2023-07-16T12:23:55;0.90;;;0.50;;
27365;SDS011;14837;57.148;-2.144;2023-07-16T12:26:21;0.40;;;0.30;;
27365;SDS011;14837;57.148;-2.144;2023-07-16T12:28:48;0.28;;;0.20;;
27365;SDS011;14837;57.148;-2.144;2023-07-16T12:31:14;0.63;;;0.40;;
27365;SDS011;14837;57.148;-2.144;2023-07-16T12:33:43;0.35;;;0.35;;
27365;SDS011;14837;57.148;-2.144;2023-07-16T12:36:09;0.43;;;0.20;;
27365;SDS011;14837;57.148;-2.144;2023-07-16T12:38:36;0.60;;;0.30;;
27365;SDS011;14837;57.148;-2.144;2023-07-16T12:41:02;0.20;;;0.20;;
27365;SDS011;14837;57.148;-2.144;2023-07-16T12:43:29;0.75;;;0.30;;
27365;SDS011;14837;57.148;-2.144;2023-07-16T12:46:01;0.38;;;0.30;;
27365;SDS011;14837;57.148;-2.144;2023-07-16T12:48:31;0.25;;;0.20;;
27365;SDS011;14837;57.148;-2.144;2023-07-16T12:50:57;0.57;;;0.30;;
27365;SDS011;14837;57.148;-2.144;2023-07-16T12:53:24;0.17;;;0.10;;
27365;SDS011;14837;57.148;-2.144;2023-07-16T12:55:51;0.38;;;0.30;;
27365;SDS011;14837;57.148;-2.144;2023-07-16T12:58:18;0.20;;;0.20;;
27365;SDS011;14837;57.148;-2.144;2023-07-16T13:00:45;0.32;;;0.10;;
27365;SDS011;14837;57.148;-2.144;2023-07-16T13:03:11;2.20;;;0.45;;
27365;SDS011;14837;57.148;-2.144;2023-07-16T13:05:40;0.45;;;0.30;;
27365;SDS011;14837;57.148;-2.144;2023-07-16T13:08:07;0.22;;;0.20;;
27365;SDS011;14837;57.148;-2.144;2023-07-16T13:10:34;0.30;;;0.30;;
27365;SDS011;14837;57.148;-2.144;2023-07-16T13:13:00;0.17;;;0.17;;
27365;SDS011;14837;57.148;-2.144;2023-07-16T13:15:28;0.22;;;0.20;;
27365;SDS011;14837;57.148;-2.144;2023-07-16T13:17:55;0.15;;;0.10;;
27365;SDS011;14837;57.148;-2.144;2023-07-16T13:20:22;0.60;;;0.20;;
27365;SDS011;14837;57.148;-2.144;2023-07-16T13:22:50;0.38;;;0.35;;
27365;SDS011;14837;57.148;-2.144;2023-07-16T13:25:17;0.30;;;0.20;;
27365;SDS011;14837;57.148;-2.144;2023-07-16T13:27:43;0.85;;;0.20;;
27365;SDS011;14837;57.148;-2.144;2023-07-16T13:30:10;0.22;;;0.20;;
27365;SDS011;14837;57.148;-2.144;2023-07-16T13:32:37;0.47;;;0.30;;
27365;SDS011;14837;57.148;-2.144;2023-07-16T13:35:03;0.28;;;0.20;;
27365;SDS011;14837;57.148;-2.144;2023-07-16T13:37:30;0.65;;;0.47;;
27365;SDS011;14837;57.148;-2.144;2023-07-16T13:39:57;0.30;;;0.30;;
27365;SDS011;14837;57.148;-2.144;2023-07-16T13:42:23;0.22;;;0.10;;
27365;SDS011;14837;57.148;-2.144;2023-07-16T13:44:50;0.20;;;0.20;;
27365;SDS011;14837;57.148;-2.144;2023-07-16T13:47:16;1.00;;;0.20;;
27365;SDS011;14837;57.148;-2.144;2023-07-16T13:49:43;0.15;;;0.15;;
27365;SDS011;14837;57.148;-2.144;2023-07-16T13:52:09;0.95;;;0.20;;
27365;SDS011;14837;57.148;-2.144;2023-07-16T13:54:36;0.10;;;0.10;;
27365;SDS011;14837;57.148;-2.144;2023-07-16T13:57:07;0.20;;;0.20;;
27365;SDS011;14837;57.148;-2.144;2023-07-16T13:59:34;0.60;;;0.20;;
27365;SDS011;14837;57.148;-2.144;2023-07-16T14:02:01;0.13;;;0.10;;
27365;SDS011;14837;57.148;-2.144;2023-07-16T14:04:28;0.32;;;0.15;;
27365;SDS011;14837;57.148;-2.144;2023-07-16T14:06:55;0.30;;;0.20;;
27365;SDS011;14837;57.148;-2.144;2023-07-16T14:09:22;0.17;;;0.10;;
27365;SDS011;14837;57.148;-2.144;2023-07-16T14:11:49;0.40;;;0.20;;
27365;SDS011;14837;57.148;-2.144;2023-07-16T14:14:15;0.45;;;0.13;;
27365;SDS011;14837;57.148;-2.144;2023-07-16T14:16:42;0.10;;;0.10;;
27365;SDS011;14837;57.148;-2.144;2023-07-16T14:19:09;0.28;;;0.20;;
27365;SDS011;14837;57.148;-2.144;2023-07-16T14:21:38;0.50;;;0.30;;
27365;SDS011;14837;57.148;-2.144;2023-07-16T14:24:05;0.63;;;0.20;;
27365;SDS011;14837;57.148;-2.144;2023-07-16T14:26:32;0.63;;;0.20;;
27365;SDS011;14837;57.148;-2.144;2023-07-16T14:28:59;0.20;;;0.10;;
27365;SDS011;14837;57.148;-2.144;2023-07-16T14:31:26;0.13;;;0.10;;
27365;SDS011;14837;57.148;-2.144;2023-07-16T14:33:53;1.23;;;0.20;;
27365;SDS011;14837;57.148;-2.144;2023-07-16T14:36:19;0.20;;;0.10;;
27365;SDS011;14837;57.148;-2.144;2023-07-16T14:38:48;0.20;;;0.20;;
27365;SDS011;14837;57.148;-2.144;2023-07-16T14:41:14;0.52;;;0.10;;
27365;SDS011;14837;57.148;-2.144;2023-07-16T14:43:41;0.32;;;0.22;;
27365;SDS011;14837;57.148;-2.144;2023-07-16T14:46:07;0.17;;;0.17;;
27365;SDS011;14837;57.148;-2.144;2023-07-16T14:48:35;0.75;;;0.20;;